Date,TemperatureHighF,TemperatureAvgF,TemperatureLowF,DewpointHighF,DewpointAvgF,DewpointLowF,HumidityHigh,HumidityAvg,HumidityLow,PressureMaxIn,PressureMinIn,WindSpeedMaxMPH,WindSpeedAvgMPH,GustSpeedMaxMPH,PrecipitationSumIn
2013-1-1,39.2,35.5,26.0,30.0,24.9,13.0,73,65,53,30.03,29.85,10,2,11,0.03
2013-1-2,32.7,26.8,21.5,17.0,13.9,11.0,66,59,49,30.19,30.01,9,1,12,0.00
2013-1-3,32.5,27.7,22.6,20.0,16.9,15.0,80,65,52,30.21,30.08,3,0,7,0.00
2013-1-4,37.3,32.8,25.5,24.0,21.9,19.0,77,65,55,30.10,29.97,9,1,13,0.00
2013-1-5,42.0,34.2,29.1,25.0,21.9,19.0,79,62,47,30.29,30.03,7,1,11,0.00
2013-1-6,46.3,37.8,31.5,32.0,28.1,24.0,91,69,50,30.23,29.98,6,1,10,0.00
2013-1-7,44.5,36.1,26.3,31.0,25.6,22.0,88,68,42,30.40,30.06,4,0,15,0.00
2013-1-8,48.1,34.4,24.1,33.0,27.6,22.0,93,78,53,30.43,30.34,4,0,7,0.00
2013-1-9,46.8,38.0,27.8,38.0,32.5,26.0,94,81,67,30.39,30.14,4,1,9,0.00
2013-1-10,47.7,41.9,36.2,34.0,26.9,25.0,68,56,41,30.55,30.24,8,1,13,0.00
2013-1-11,44.4,39.8,32.9,43.0,33.6,25.0,96,79,61,30.54,30.10,2,0,5,0.46
2013-1-12,47.3,45.1,41.4,45.0,43.6,40.0,97,94,91,30.17,30.08,3,0,5,0.03
2013-1-13,47.7,45.4,43.4,47.0,44.6,43.0,98,97,93,30.16,30.01,1,0,4,0.01
2013-1-14,56.2,49.2,39.2,53.0,42.9,30.0,99,81,51,30.30,29.93,5,1,11,0.08
2013-1-15,39.2,36.8,34.5,36.0,29.4,27.0,91,75,65,30.35,30.22,4,0,7,0.07
2013-1-16,35.4,32.9,31.6,33.0,31.4,30.0,96,94,84,30.22,29.81,6,1,8,0.50
2013-1-17,43.4,38.5,35.4,34.0,29.5,25.0,91,71,58,30.10,29.92,3,1,8,0.10
2013-1-18,35.1,27.9,23.8,24.0,12.6,5.0,70,54,36,30.49,30.01,6,1,14,0.00
2013-1-19,50.6,35.6,23.4,30.0,23.2,13.0,76,62,42,30.42,29.93,9,2,12,0.00
2013-1-20,53.4,40.0,29.0,32.0,23.5,12.0,91,56,27,30.05,29.70,10,2,21,0.00
2013-1-21,30.6,27.2,21.2,18.0,12.9,8.0,69,55,45,30.10,29.85,6,1,12,0.00
2013-1-22,25.5,18.9,12.1,12.0,1.8,-7.0,65,48,32,30.23,29.85,10,2,16,0.00
2013-1-23,18.8,13.1,9.2,3.0,-2.4,-6.0,74,51,36,30.27,30.18,7,1,14,0.00
2013-1-24,22.5,15.6,7.8,5.0,0.6,-4.0,81,54,33,30.43,30.15,10,2,18,0.00
2013-1-25,23.8,16.4,10.9,15.0,5.3,-3.0,90,63,43,30.44,30.08,5,1,8,0.00
2013-1-26,27.1,19.2,12.9,12.0,8.7,6.0,89,65,43,30.40,30.07,5,1,13,0.00
2013-1-27,35.1,23.7,14.3,14.0,10.9,8.0,78,60,37,30.54,30.40,5,1,11,0.00
2013-1-28,34.0,29.0,20.7,33.0,24.9,14.0,95,85,68,30.51,30.01,2,0,5,0.16
2013-1-29,54.9,42.8,34.0,43.0,39.4,33.0,97,88,63,30.15,30.02,3,0,7,0.06
2013-1-30,66.1,49.4,39.4,60.0,47.9,38.0,99,94,79,30.08,29.34,6,0,13,0.07
2013-1-31,61.3,44.3,28.5,59.0,31.7,10.0,96,64,38,29.80,29.05,16,4,28,0.86
2013-2-1,31.2,26.7,22.0,18.0,12.4,4.0,78,56,31,30.25,29.80,10,2,16,0.00
2013-2-2,28.8,22.7,16.9,20.0,10.3,6.0,88,60,38,30.32,30.07,6,1,10,0.00
2013-2-3,31.3,25.3,21.7,21.0,19.4,17.0,91,79,60,30.06,29.81,3,0,7,0.00
2013-2-4,29.5,25.4,20.7,20.0,11.9,9.0,82,58,44,29.99,29.82,11,2,16,0.00
2013-2-5,30.5,28.4,25.7,28.0,24.4,14.0,91,85,61,29.99,29.91,3,0,5,0.00
2013-2-6,38.7,32.2,27.7,28.0,21.7,6.0,94,68,39,30.36,29.93,8,1,11,0.02
2013-2-7,32.6,28.1,21.8,21.0,12.0,6.0,67,52,41,30.52,30.34,4,0,8,0.00
2013-2-8,33.2,31.4,26.7,32.0,28.3,20.0,96,88,67,30.33,29.65,11,3,19,0.00
2013-2-9,33.1,26.9,19.0,28.0,17.2,8.0,96,69,42,30.36,29.77,11,1,16,0.00
2013-2-10,37.2,25.0,13.0,24.0,13.5,8.0,84,64,36,30.50,30.34,3,0,9,0.00
2013-2-11,43.1,35.9,28.1,43.0,33.8,23.0,98,92,78,30.34,29.67,2,0,4,0.35
2013-2-12,44.1,39.5,32.5,38.0,27.6,24.0,96,63,51,29.98,29.74,7,2,16,0.04
2013-2-13,44.5,34.0,22.3,32.0,26.0,20.0,94,74,50,29.96,29.70,3,0,4,0.04
2013-2-14,46.2,36.4,30.0,32.0,28.7,25.0,95,76,45,30.00,29.72,3,0,10,0.02
2013-2-15,54.9,40.7,28.5,34.0,30.8,26.0,95,71,43,30.02,29.92,6,1,10,0.00
2013-2-16,39.1,34.8,29.7,34.0,26.5,15.0,92,73,54,29.98,29.76,6,1,10,0.06
2013-2-17,30.2,25.7,16.8,15.0,6.3,1.0,58,44,32,30.02,29.69,11,4,20,0.00
2013-2-18,35.4,24.5,15.4,14.0,6.9,1.0,59,48,32,30.26,30.03,9,2,18,0.00
2013-2-19,47.2,35.5,23.0,42.0,28.6,14.0,96,77,51,30.21,29.69,6,1,13,0.29
2013-2-20,36.6,29.5,24.0,26.0,14.8,10.0,69,55,43,30.00,29.74,9,3,16,0.00
2013-2-21,34.0,27.1,23.1,16.0,13.0,10.0,67,56,47,30.29,30.00,12,3,20,0.00
2013-2-22,38.0,30.9,23.2,32.0,22.3,14.0,83,71,55,30.41,30.27,5,0,8,0.00
2013-2-23,41.2,37.7,36.1,40.0,36.3,33.0,96,95,84,30.28,29.81,8,1,10,0.33
2013-2-24,46.7,38.1,31.8,38.0,31.1,22.0,96,77,56,29.98,29.76,7,2,13,0.01
2013-2-25,43.0,37.2,30.1,29.0,26.6,22.0,80,66,53,30.24,29.99,9,1,10,0.00
2013-2-26,44.6,36.8,27.4,34.0,30.2,25.0,93,77,62,30.30,29.86,7,1,15,0.10
2013-2-27,47.4,41.7,35.6,45.0,38.9,34.0,96,90,75,29.88,29.51,13,3,17,1.41
2013-2-28,49.0,42.0,37.0,37.0,33.9,29.0,93,74,56,29.63,29.55,4,0,6,0.00
2013-3-1,44.3,38.7,34.3,31.0,28.8,26.0,83,69,54,29.79,29.61,6,2,11,0.00
2013-3-2,39.4,34.3,29.6,27.0,24.6,23.0,86,68,57,29.80,29.71,9,2,13,0.00
2013-3-3,38.4,31.4,27.5,23.0,19.5,17.0,75,62,50,29.79,29.68,10,2,16,0.00
2013-3-4,40.1,32.8,26.2,21.0,19.2,15.0,71,58,46,29.93,29.79,13,2,17,0.00
2013-3-5,49.2,38.3,29.8,29.0,24.8,21.0,72,59,43,30.03,29.93,11,1,12,0.00
2013-3-6,41.6,39.2,35.8,35.0,31.5,28.0,84,74,64,29.98,29.85,14,4,29,0.00
2013-3-7,38.3,35.9,32.5,35.0,30.3,27.0,94,81,66,30.09,29.93,8,2,18,0.14
2013-3-8,40.2,34.3,30.4,35.0,31.2,29.0,94,89,70,30.20,30.02,6,1,10,0.53
2013-3-9,56.1,41.4,32.2,29.0,24.5,18.0,77,55,23,30.33,30.19,8,1,14,0.03
2013-3-10,49.1,38.0,28.9,36.0,31.8,24.0,96,79,59,30.40,30.31,4,1,7,0.00
2013-3-11,55.1,44.8,36.7,47.0,41.0,34.0,93,87,67,30.33,30.09,4,0,7,0.00
2013-3-12,57.6,51.1,43.1,56.0,48.6,37.0,98,91,76,30.09,29.66,7,1,15,0.90
2013-3-13,50.6,42.1,34.4,37.0,30.2,24.0,91,65,37,29.90,29.80,12,1,12,0.00
2013-3-14,41.2,34.1,28.4,26.0,13.5,7.0,66,44,26,29.98,29.86,14,4,18,0.00
2013-3-15,46.1,37.3,27.8,31.0,20.6,11.0,64,51,41,30.00,29.72,12,2,14,0.00
2013-3-16,41.2,35.0,32.2,31.0,26.4,20.0,89,72,51,29.93,29.79,4,0,9,0.02
2013-3-17,37.0,32.8,27.9,30.0,19.2,15.0,87,59,42,30.32,29.93,6,2,10,0.00
2013-3-18,35.7,30.4,25.8,31.0,19.4,9.0,94,66,48,30.41,30.03,5,1,10,0.00
2013-3-19,46.6,37.7,32.5,36.0,33.2,21.0,95,85,52,30.01,29.71,8,2,13,0.55
2013-3-20,45.0,37.5,30.1,22.0,19.7,17.0,66,50,35,29.89,29.79,10,2,16,0.00
2013-3-21,38.9,33.7,29.4,28.0,17.8,12.0,89,54,36,29.84,29.64,6,2,12,0.00
2013-3-22,40.8,33.2,25.9,23.0,17.9,13.0,71,54,41,29.89,29.75,8,2,14,0.00
2013-3-23,45.3,37.9,30.7,23.0,20.4,17.0,68,51,36,29.95,29.83,9,2,19,0.00
2013-3-24,46.7,38.5,30.6,28.0,21.9,19.0,63,52,39,29.96,29.71,6,1,11,0.00
2013-3-25,39.1,37.2,33.7,35.0,30.2,25.0,92,77,57,29.71,29.48,11,1,14,0.13
2013-3-26,50.6,41.6,34.0,32.0,29.2,25.0,87,64,39,29.87,29.60,11,1,11,0.00
2013-3-27,51.8,42.5,34.0,31.0,26.9,21.0,72,56,32,29.99,29.87,9,2,14,0.00
2013-3-28,49.6,42.6,35.5,34.0,30.2,29.0,79,63,47,30.11,29.97,8,2,10,0.00
2013-3-29,54.2,45.1,35.1,31.0,29.1,26.0,77,55,36,30.15,30.06,9,1,12,0.00
2013-3-30,58.6,45.7,34.3,32.0,25.6,14.0,81,51,18,30.18,30.06,7,1,11,0.00
2013-3-31,55.6,43.8,31.4,44.0,33.9,25.0,96,70,43,30.13,29.69,4,1,10,0.20
2013-4-1,62.2,47.6,36.7,46.0,36.5,12.0,98,69,34,29.92,29.63,8,2,15,0.00
2013-4-2,43.3,36.4,28.9,19.0,13.9,11.0,57,41,27,30.10,29.93,12,2,18,0.00
2013-4-3,46.9,37.3,29.6,16.0,12.5,9.0,52,37,25,30.31,30.10,8,2,16,0.00
2013-4-4,53.4,41.3,28.2,30.0,20.9,14.0,66,45,31,30.40,30.09,5,1,14,0.00
2013-4-5,63.1,49.2,39.3,31.0,24.3,18.0,69,41,20,30.08,29.72,11,2,14,0.00
2013-4-6,53.2,42.3,33.7,28.0,16.3,9.0,65,38,17,30.31,30.01,9,2,15,0.00
2013-4-7,64.1,49.9,36.4,44.0,34.3,26.0,77,58,29,30.31,29.97,9,1,11,0.00
2013-4-8,75.7,57.9,44.5,47.0,44.1,38.0,90,64,26,30.07,29.97,5,1,7,0.00
2013-4-9,82.9,66.6,50.0,54.0,45.0,37.0,89,53,20,29.99,29.89,11,1,15,0.00
2013-4-10,77.4,63.4,56.0,56.0,50.2,43.0,96,64,45,29.96,29.82,5,1,14,0.51
2013-4-11,61.6,55.2,47.6,59.0,50.2,41.0,98,84,66,30.03,29.77,4,1,9,0.03
2013-4-12,47.7,42.7,40.7,42.0,40.3,39.0,95,91,75,30.02,29.72,11,2,17,0.64
2013-4-13,58.4,48.9,37.3,43.0,37.7,34.0,97,69,43,29.97,29.75,5,1,12,0.03
2013-4-14,57.7,50.8,41.9,42.0,34.2,28.0,89,56,33,30.20,29.97,9,1,14,0.00
2013-4-15,56.1,49.3,42.0,42.0,31.9,27.0,83,53,39,30.38,30.22,5,1,9,0.00
2013-4-16,68.7,56.8,45.9,56.0,49.4,41.0,87,76,64,30.37,30.11,6,1,10,0.00
2013-4-17,72.8,62.2,50.8,57.0,43.2,31.0,86,55,23,30.29,30.11,6,1,8,0.00
2013-4-18,56.8,51.9,46.4,52.0,45.0,39.0,96,78,53,30.35,30.10,7,1,11,0.03
2013-4-19,78.4,65.6,53.3,65.0,60.3,52.0,99,84,61,30.10,29.63,7,2,15,0.18
2013-4-20,61.5,52.4,46.2,60.0,35.9,25.0,94,57,32,30.30,29.69,7,2,16,0.14
2013-4-21,55.0,44.5,35.3,32.0,23.8,20.0,71,46,28,30.62,30.31,7,1,12,0.00
2013-4-22,51.8,45.1,35.1,37.0,33.2,29.0,87,65,42,30.66,30.49,6,1,13,0.00
2013-4-23,52.2,44.8,39.2,43.0,37.3,31.0,89,75,66,30.48,30.12,4,1,10,0.00
2013-4-24,73.8,55.6,39.5,54.0,46.1,37.0,91,72,48,30.12,29.81,5,1,12,0.00
2013-4-25,65.7,55.5,45.4,54.0,31.8,22.0,82,44,19,30.26,29.86,11,2,13,0.00
2013-4-26,66.3,55.0,42.2,37.0,30.5,21.0,75,43,19,30.40,30.26,6,1,10,0.00
2013-4-27,71.2,56.7,39.4,34.0,31.4,28.0,78,41,21,30.43,30.28,5,1,7,0.00
2013-4-28,70.3,56.8,40.8,43.0,36.3,32.0,80,49,28,30.32,30.19,6,0,11,0.00
2013-4-29,55.6,53.2,51.6,51.0,48.4,38.0,93,84,51,30.24,30.18,2,0,7,0.20
2013-4-30,65.7,55.6,44.8,50.0,40.2,24.0,95,62,25,30.34,30.21,4,1,9,0.01
2013-5-1,65.4,53.1,39.5,45.0,38.4,29.0,88,61,29,30.49,30.33,6,1,16,0.00
2013-5-2,73.6,57.1,40.9,47.0,43.7,40.0,96,65,35,30.47,30.32,5,1,6,0.00
2013-5-3,65.8,55.1,45.6,46.0,40.4,33.0,89,60,38,30.46,30.36,8,1,10,0.00
2013-5-4,67.0,53.3,42.1,46.0,42.8,40.0,96,71,40,30.38,30.25,5,1,12,0.00
2013-5-5,61.6,50.1,39.8,45.0,41.2,38.0,94,73,50,30.30,30.23,4,0,8,0.00
2013-5-6,68.3,54.1,40.7,55.0,47.5,39.0,95,79,63,30.27,30.16,3,0,8,0.00
2013-5-7,72.8,60.1,46.6,60.0,53.7,45.0,97,80,62,30.18,30.09,5,1,9,0.00
2013-5-8,65.6,60.2,52.2,61.0,57.9,51.0,97,92,84,30.09,29.97,3,0,7,1.18
2013-5-9,68.9,58.5,51.2,59.0,55.3,50.0,98,90,65,30.00,29.89,3,0,6,0.48
2013-5-10,80.8,65.7,52.1,60.0,56.6,52.0,99,76,45,30.00,29.89,4,0,7,0.00
2013-5-11,71.9,63.9,60.6,66.0,62.3,59.0,98,94,79,29.90,29.70,3,0,11,0.88
2013-5-12,66.7,60.0,50.4,60.0,42.5,27.0,98,57,25,29.94,29.67,9,2,13,0.00
2013-5-13,55.0,48.9,41.8,34.0,30.2,26.0,71,50,34,30.12,29.95,7,1,12,0.00
2013-5-14,61.7,50.1,40.4,35.0,29.7,22.0,77,50,23,30.14,30.02,4,1,7,0.00
2013-5-15,73.4,57.5,41.7,60.0,47.5,35.0,89,70,55,30.07,29.68,4,0,9,0.00
2013-5-16,81.1,68.3,56.5,61.0,55.7,50.0,95,67,39,29.83,29.71,6,0,8,0.00
2013-5-17,74.0,63.9,53.6,49.0,43.4,39.0,69,49,31,30.20,29.84,3,0,6,0.00
2013-5-18,63.8,57.9,51.8,56.0,50.8,45.0,88,78,60,30.31,30.20,1,0,3,0.00
2013-5-19,57.8,56.5,54.6,57.0,55.3,52.0,98,96,83,30.31,30.18,3,0,7,0.68
2013-5-20,79.5,67.1,57.4,68.0,63.0,57.0,99,87,67,30.18,29.96,5,0,7,0.00
2013-5-21,87.2,74.4,61.9,72.0,67.5,61.0,98,81,60,29.97,29.83,5,1,7,0.00
2013-5-22,81.8,70.8,60.9,72.0,66.5,59.0,96,86,72,29.93,29.82,2,0,7,0.00
2013-5-23,80.8,72.1,67.7,71.0,68.3,66.0,96,88,66,29.88,29.75,3,0,10,0.27
2013-5-24,67.6,54.9,45.3,66.0,52.6,41.0,98,91,79,29.96,29.68,7,1,10,0.57
2013-5-25,56.1,49.7,44.3,45.0,41.7,38.0,93,75,57,30.03,29.91,10,2,18,0.11
2013-5-26,68.4,56.3,46.4,41.0,38.2,34.0,76,54,30,30.21,29.98,7,2,12,0.00
2013-5-27,76.0,60.3,43.3,47.0,40.5,35.0,84,52,30,30.25,30.12,5,0,8,0.00
2013-5-28,66.1,57.3,50.3,58.0,52.0,45.0,98,83,56,30.23,30.13,2,0,3,0.59
2013-5-29,86.6,69.7,58.7,71.0,63.8,58.0,98,83,54,30.13,29.99,4,0,7,0.00
2013-5-30,92.7,79.3,66.7,69.0,66.4,64.0,96,68,40,30.13,30.05,4,1,5,0.00
2013-5-31,94.4,80.8,68.0,72.0,66.5,62.0,92,65,34,30.12,29.98,4,0,8,0.00
2013-6-1,92.1,79.6,66.2,72.0,67.5,64.0,95,69,46,30.02,29.88,6,1,8,0.00
2013-6-2,88.5,79.6,71.4,72.0,69.1,67.0,87,71,52,29.91,29.76,5,1,9,0.00
2013-6-3,78.6,71.9,67.0,71.0,67.1,51.0,97,85,57,29.88,29.79,4,0,6,0.37
2013-6-4,76.4,65.6,56.2,49.0,45.6,43.0,67,50,33,30.11,29.88,8,1,8,0.00
2013-6-5,73.7,63.8,50.9,54.0,46.2,39.0,87,55,36,30.21,30.11,3,0,7,0.00
2013-6-6,69.4,62.1,55.0,60.0,56.4,50.0,95,83,53,30.15,30.01,5,0,7,0.18
2013-6-7,62.7,60.9,59.5,62.0,60.3,59.0,98,97,96,30.00,29.61,7,1,10,3.52
2013-6-8,76.1,65.9,56.7,66.0,61.3,55.0,97,86,67,30.05,29.59,5,1,11,0.07
2013-6-9,82.2,70.5,58.3,63.0,60.0,57.0,97,72,48,30.17,30.05,4,0,7,0.00
2013-6-10,69.5,65.9,63.6,66.0,63.4,61.0,98,92,85,30.15,29.82,3,0,9,1.11
2013-6-11,79.8,71.7,63.6,68.0,65.4,60.0,99,82,64,29.81,29.62,6,1,11,0.12
2013-6-12,78.6,70.2,62.2,62.0,56.9,54.0,82,64,47,29.85,29.71,7,1,9,0.00
2013-6-13,65.0,61.4,56.8,62.0,58.9,55.0,96,91,83,29.84,29.45,4,1,12,0.84
2013-6-14,74.7,60.0,53.3,62.0,55.2,51.0,95,85,56,29.89,29.54,3,0,9,0.73
2013-6-15,81.7,69.5,59.3,60.0,56.7,52.0,88,66,41,30.02,29.89,3,0,8,0.00
2013-6-16,80.8,70.4,58.3,66.0,59.6,53.0,87,70,46,29.99,29.77,7,1,15,0.00
2013-6-17,85.1,73.4,64.0,69.0,65.8,63.0,97,79,51,29.91,29.83,4,0,8,0.28
2013-6-18,82.5,69.8,63.3,70.0,65.0,62.0,96,86,61,29.89,29.80,3,0,7,0.38
2013-6-19,78.3,67.3,58.0,62.0,54.4,47.0,95,67,35,30.16,29.88,4,0,9,0.00
2013-6-20,80.4,68.6,54.3,60.0,56.3,53.0,95,67,44,30.26,30.17,4,0,5,0.00
2013-6-21,84.5,71.5,57.9,61.0,56.3,52.0,85,60,42,30.30,30.22,4,0,11,0.00
2013-6-22,85.6,72.5,58.4,66.0,60.0,54.0,87,66,50,30.27,30.12,4,0,6,0.00
2013-6-23,89.4,75.7,63.9,73.0,67.5,61.0,92,77,53,30.19,30.05,3,0,7,0.00
2013-6-24,92.2,79.9,71.5,73.0,69.6,64.0,96,73,46,30.07,29.95,6,1,8,0.00
2013-6-25,91.6,78.0,67.7,75.0,69.7,66.0,94,77,51,29.99,29.80,5,1,9,0.07
2013-6-26,86.1,77.6,71.1,72.0,69.2,67.0,96,76,57,29.85,29.78,2,0,5,0.00
2013-6-27,86.4,77.4,70.9,74.0,71.5,70.0,97,83,62,29.82,29.55,3,0,8,0.74
2013-6-28,87.6,77.1,71.2,72.0,70.0,67.0,97,80,56,29.56,29.46,4,0,10,0.00
2013-6-29,86.8,76.7,66.5,73.0,67.4,65.0,95,75,52,29.69,29.48,3,0,6,0.00
2013-6-30,83.6,75.8,69.7,75.0,72.0,69.0,97,88,74,29.90,29.69,3,0,8,0.00
2013-7-1,76.2,74.2,71.4,74.0,72.5,70.0,98,94,90,30.04,29.89,3,0,6,2.17
2013-7-2,84.3,76.8,72.7,76.0,73.3,72.0,97,89,71,30.18,30.04,2,0,4,0.02
2013-7-3,84.4,77.4,71.2,77.0,73.4,69.0,97,88,73,30.25,30.16,3,0,8,0.01
2013-7-4,90.5,80.9,73.9,77.0,74.2,72.0,98,81,60,30.25,30.14,4,0,9,0.00
2013-7-5,92.2,82.5,73.2,75.0,73.1,71.0,96,75,56,30.21,30.09,5,1,10,0.00
2013-7-6,93.0,82.8,74.9,76.0,73.6,72.0,92,75,51,30.14,30.02,6,1,8,0.00
2013-7-7,93.4,83.9,75.5,77.0,73.4,68.0,90,72,57,30.06,29.92,3,1,18,0.00
2013-7-8,89.6,78.6,70.4,71.0,69.0,67.0,89,74,54,30.04,29.96,5,1,9,0.00
2013-7-9,88.2,79.2,69.5,73.0,69.6,67.0,91,73,57,30.07,29.98,4,0,7,0.00
2013-7-10,87.3,79.6,73.2,76.0,72.9,71.0,92,80,62,30.01,29.80,10,1,10,0.01
2013-7-11,85.9,79.5,75.0,75.0,70.6,65.0,89,75,56,29.92,29.79,2,0,5,0.00
2013-7-12,77.4,73.0,67.7,70.0,66.2,63.0,95,79,69,30.09,29.92,6,1,10,0.06
2013-7-13,78.7,72.7,66.8,76.0,71.2,66.0,98,95,88,30.27,30.09,4,0,8,0.21
2013-7-14,91.2,81.1,73.9,77.0,74.0,72.0,98,80,57,30.34,30.23,6,0,6,0.00
2013-7-15,95.7,84.1,75.4,76.0,73.3,71.0,88,71,50,30.25,30.13,4,1,5,0.00
2013-7-16,94.3,84.6,75.7,73.0,69.7,67.0,81,62,42,30.20,30.12,4,0,6,0.00
2013-7-17,96.6,85.1,75.1,74.0,71.5,69.0,84,65,44,30.19,30.05,2,0,4,0.00
2013-7-18,98.4,86.8,77.4,77.0,73.7,70.0,83,66,43,30.06,29.95,3,0,6,0.00
2013-7-19,96.2,87.4,78.5,79.0,76.6,74.0,89,71,52,29.97,29.79,5,1,9,0.00
2013-7-20,92.0,83.6,78.1,77.0,73.1,69.0,83,71,55,29.83,29.72,6,1,13,0.00
2013-7-21,87.2,79.1,72.8,73.0,68.4,64.0,96,72,47,29.95,29.83,3,0,7,0.06
2013-7-22,82.5,76.9,72.8,77.0,72.2,66.0,97,85,74,29.95,29.79,4,0,5,0.88
2013-7-23,85.5,77.1,71.7,75.0,72.9,70.0,98,87,66,29.79,29.56,3,0,7,0.74
2013-7-24,79.8,74.9,67.3,70.0,65.1,55.0,91,73,55,29.93,29.61,3,1,7,0.00
2013-7-25,67.4,65.3,62.7,60.0,55.3,50.0,79,70,62,30.05,29.93,7,1,10,0.00
2013-7-26,83.5,72.0,66.0,64.0,61.0,59.0,83,70,51,30.04,29.99,4,0,6,0.00
2013-7-27,85.4,72.3,62.2,68.0,63.8,61.0,96,77,48,30.05,29.96,3,0,7,0.00
2013-7-28,80.5,71.5,66.2,72.0,67.9,64.0,98,88,70,29.98,29.91,4,0,7,1.50
2013-7-29,83.4,73.7,66.3,70.0,64.4,55.0,98,75,41,30.11,29.95,2,0,7,0.02
2013-7-30,79.5,70.9,61.2,61.0,58.4,56.0,84,66,50,30.17,30.10,4,0,7,0.00
2013-7-31,81.9,71.9,60.4,64.0,60.8,58.0,92,70,49,30.16,30.03,1,0,5,0.00
2013-8-1,72.2,68.5,65.8,69.0,66.1,64.0,98,92,80,30.04,29.84,1,0,3,1.27
2013-8-2,83.7,73.0,63.5,68.0,64.7,61.0,98,78,48,29.92,29.79,4,0,10,0.00
2013-8-3,77.0,69.8,65.2,67.0,64.7,61.0,93,84,67,29.92,29.84,3,0,7,0.08
2013-8-4,79.5,71.1,62.7,64.0,58.1,52.0,91,65,45,29.98,29.86,5,1,9,0.00
2013-8-5,77.5,67.0,59.4,57.0,52.6,47.0,79,62,39,30.06,29.98,3,0,6,0.00
2013-8-6,80.8,69.6,56.5,64.0,57.2,54.0,93,67,43,30.12,30.03,5,0,6,0.00
2013-8-7,77.2,71.4,66.1,69.0,66.0,63.0,90,83,72,30.14,30.06,2,0,8,0.00
2013-8-8,82.6,73.2,68.9,75.0,70.7,68.0,98,92,74,30.07,30.00,2,0,9,0.42
2013-8-9,84.8,76.7,71.1,77.0,74.0,71.0,98,91,75,30.01,29.80,5,0,8,0.10
2013-8-10,82.2,75.1,68.6,73.0,65.7,60.0,94,74,55,30.05,29.86,4,0,7,0.00
2013-8-11,80.2,70.8,59.9,65.0,59.4,55.0,88,69,50,30.12,30.02,2,0,5,0.00
2013-8-12,82.8,72.7,68.0,67.0,66.1,63.0,96,81,53,30.04,29.93,2,0,4,0.10
2013-8-13,77.3,71.0,67.3,70.0,68.2,66.0,98,91,76,29.93,29.70,2,0,4,0.98
2013-8-14,73.3,65.3,56.5,65.0,53.8,49.0,93,68,52,30.06,29.76,4,1,10,0.00
2013-8-15,76.3,64.7,54.9,56.0,52.3,48.0,86,66,41,30.15,30.06,5,0,7,0.00
2013-8-16,78.3,67.1,54.5,58.0,54.9,50.0,96,68,42,30.21,30.13,2,0,4,0.00
2013-8-17,80.7,69.6,58.6,61.0,57.7,55.0,89,68,44,30.28,30.21,3,0,4,0.00
2013-8-18,76.4,69.2,63.3,64.0,59.2,55.0,87,72,51,30.26,30.14,1,0,5,0.00
2013-8-19,76.8,68.9,60.9,66.0,62.7,59.0,96,81,60,30.14,30.04,4,0,4,0.00
2013-8-20,85.2,74.2,63.1,68.0,65.4,62.0,97,76,50,30.13,30.05,3,0,4,0.00
2013-8-21,86.7,76.3,65.2,68.0,64.5,61.0,94,69,43,30.18,30.05,2,0,5,0.00
2013-8-22,74.7,71.4,69.9,73.0,69.4,66.0,98,93,82,30.07,29.88,1,0,3,0.83
2013-8-23,79.1,73.2,66.8,70.0,62.6,53.0,97,71,42,30.09,29.88,4,0,6,0.00
2013-8-25,70.8,63.5,65.6,58.0,47.8,-99.9,76,66,64,30.25,0.00,0,-62,1,0.00
2013-8-26,80.7,72.0,64.5,70.0,63.3,57.0,93,74,62,30.24,29.91,3,0,9,0.01
2013-8-27,85.9,76.6,70.2,70.0,68.8,68.0,94,78,59,29.91,29.82,4,0,8,0.03
2013-8-28,82.7,73.1,68.0,73.0,70.5,67.0,98,92,70,29.90,29.84,1,0,6,1.20
2013-8-29,78.4,72.5,69.4,70.0,68.5,66.0,98,88,73,30.03,29.88,4,0,5,1.20
2013-8-30,82.4,74.1,68.5,71.0,68.5,66.0,92,83,65,30.03,29.86,5,0,6,0.00
2013-8-31,85.2,77.2,70.7,75.0,71.9,69.0,94,84,70,29.87,29.78,4,0,7,0.00
2013-9-1,83.8,77.0,71.9,76.0,72.6,70.0,96,86,74,29.86,29.78,1,0,5,0.00
2013-9-2,80.8,74.9,71.0,75.0,72.4,70.0,97,92,81,29.80,29.70,1,0,3,0.16
2013-9-3,79.9,73.0,66.1,71.0,64.8,58.0,98,77,52,29.90,29.71,4,0,8,0.16
2013-9-4,78.7,69.3,59.6,62.0,59.0,54.0,92,71,52,30.01,29.89,4,0,7,0.00
2013-9-5,74.6,67.1,57.4,62.0,54.8,44.0,91,67,37,30.16,29.93,3,0,8,0.00
2013-9-6,69.4,60.3,51.6,50.0,45.8,42.0,81,61,39,30.26,30.14,3,0,8,0.00
2013-9-7,77.1,64.8,52.2,58.0,50.7,47.0,87,64,35,30.14,29.91,5,0,5,0.00
2013-9-8,78.7,69.8,61.6,66.0,57.0,47.0,87,65,42,30.08,29.83,6,1,9,0.00
2013-9-9,69.6,62.5,52.4,60.0,51.3,45.0,80,67,50,30.25,30.09,4,0,6,0.00
2013-9-10,85.6,74.7,66.2,75.0,68.8,60.0,91,82,69,30.17,30.05,3,0,7,0.00
2013-9-11,92.3,81.8,71.6,78.0,74.3,70.0,97,79,60,30.11,29.97,5,0,6,0.00
2013-9-12,84.4,76.2,67.8,76.0,71.8,67.0,97,86,70,29.98,29.67,3,0,11,0.28
2013-9-13,74.3,66.9,57.7,67.0,60.0,49.0,98,80,58,29.86,29.64,4,1,8,0.40
2013-9-14,63.9,57.3,52.2,50.0,47.6,45.0,80,70,59,30.14,29.86,5,1,6,0.00
2013-9-15,70.2,58.1,45.8,54.0,48.1,44.0,92,72,43,30.23,30.09,3,0,5,0.00
2013-9-16,70.0,61.6,54.5,58.0,54.1,50.0,94,78,56,30.24,30.04,3,0,6,0.01
2013-9-17,63.7,54.5,46.3,49.0,41.0,37.0,87,62,42,30.45,30.25,6,1,11,0.00
2013-9-18,69.6,56.8,45.6,53.0,46.1,42.0,90,71,41,30.36,30.20,2,0,6,0.00
2013-9-19,74.3,60.2,47.0,54.0,50.2,45.0,95,73,42,30.20,30.07,3,0,6,0.00
2013-9-20,77.5,64.5,53.0,61.0,56.8,51.0,96,78,54,30.09,30.00,2,0,5,0.00
2013-9-21,77.8,65.4,52.2,67.0,60.2,51.0,97,85,53,30.02,29.66,4,0,7,0.28
2013-9-22,67.8,61.3,53.7,67.0,52.5,43.0,97,75,52,29.92,29.66,7,1,9,0.73
2013-9-23,62.9,55.0,48.3,46.0,43.3,41.0,78,66,50,30.05,29.92,6,1,8,0.00
2013-9-24,71.9,56.9,43.2,48.0,44.3,40.0,90,65,38,30.07,29.89,4,0,6,0.00
2013-9-25,70.2,58.5,45.3,54.0,47.5,43.0,92,69,48,29.97,29.88,2,0,6,0.00
2013-9-26,68.3,59.4,50.1,58.0,54.5,48.0,95,84,65,30.10,29.95,4,0,7,0.00
2013-9-27,66.7,60.1,51.6,54.0,52.2,50.0,93,76,60,30.27,30.11,4,0,7,0.00
2013-9-28,71.1,61.5,51.7,55.0,52.5,50.0,95,74,48,30.33,30.24,4,0,7,0.00
2013-9-29,69.4,59.0,50.4,58.0,53.5,49.0,98,83,59,30.24,30.09,3,0,4,0.00
2013-9-30,72.6,59.6,48.3,56.0,52.3,47.0,98,79,50,30.09,29.97,2,0,4,0.00
2013-10-1,78.9,65.3,52.8,62.0,56.8,51.0,94,76,53,30.02,29.91,4,0,6,0.00
2013-10-2,82.2,68.6,56.0,65.0,60.0,54.0,93,75,54,30.02,29.91,5,0,10,0.00
2013-10-3,76.8,66.6,57.0,61.0,58.0,48.0,95,76,37,30.13,30.02,1,0,3,0.00
2013-10-4,84.5,71.2,59.5,67.0,63.3,58.0,95,78,54,30.06,29.96,4,0,8,0.00
2013-10-5,76.0,68.4,63.8,67.0,64.6,63.0,96,88,72,30.10,30.01,2,0,5,0.05
2013-10-6,68.5,66.5,64.5,67.0,65.3,63.0,97,95,93,30.10,30.03,3,0,6,0.00
2013-10-7,77.7,66.1,56.4,72.0,64.2,53.0,98,93,79,30.02,29.75,4,0,11,0.37
2013-10-8,65.9,56.4,47.5,53.0,47.5,45.0,97,74,48,30.33,29.99,2,0,5,0.37
2013-10-9,60.5,55.3,49.8,50.0,46.4,41.0,83,72,65,30.40,30.30,6,1,9,0.00
2013-10-10,61.2,56.5,51.5,55.0,50.9,46.0,90,82,76,30.29,30.07,7,1,10,0.01
2013-10-11,66.9,62.4,57.9,61.0,57.1,53.0,91,83,77,30.09,30.01,4,1,11,0.00
2013-10-12,70.9,64.3,57.9,59.0,49.5,36.0,82,60,29,30.28,30.07,6,1,12,0.00
2013-10-13,63.3,58.3,53.0,54.0,51.3,49.0,89,78,69,30.39,30.28,7,1,9,0.00
2013-10-14,66.3,55.0,45.9,52.0,48.9,45.0,97,81,56,30.37,30.25,3,0,4,0.00
2013-10-15,70.1,56.4,47.2,56.0,50.3,46.0,98,82,55,30.27,30.12,6,0,6,0.00
2013-10-16,67.3,59.5,50.2,59.0,55.3,48.0,93,86,72,30.13,29.93,2,0,3,0.00
2013-10-17,71.6,64.8,60.3,63.0,61.0,58.0,97,88,70,29.92,29.69,2,0,4,0.02
2013-10-18,66.4,60.1,51.6,63.0,48.3,43.0,95,66,48,29.99,29.68,5,1,9,0.02
2013-10-19,63.3,53.6,43.2,54.0,46.2,41.0,93,77,52,30.00,29.76,2,0,4,0.00
2013-10-20,61.8,53.5,45.0,54.0,40.9,35.0,90,65,37,30.08,29.77,4,1,8,0.00
2013-10-21,66.2,52.4,40.6,45.0,40.3,37.0,90,67,38,30.16,30.00,3,0,8,0.00
2013-10-22,62.6,51.2,42.4,51.0,44.9,37.0,98,80,62,30.00,29.76,5,0,6,0.00
2013-10-23,54.6,46.0,38.4,41.0,37.5,36.0,91,74,51,29.83,29.62,4,0,7,0.00
2013-10-24,53.4,44.2,38.2,36.0,31.8,27.0,83,64,40,30.03,29.77,7,1,12,0.00
2013-10-25,52.7,43.0,34.7,35.0,31.6,29.0,82,66,42,30.24,30.03,6,1,8,0.00
2013-10-26,53.8,42.8,30.1,34.0,31.7,29.0,95,68,42,30.24,29.91,8,1,13,0.00
2013-10-27,57.1,48.9,41.5,35.0,33.4,32.0,72,56,41,30.13,29.87,5,0,8,0.00
2013-10-28,60.3,46.5,33.3,38.0,34.2,30.0,90,65,40,30.32,30.13,5,0,10,0.00
2013-10-29,56.1,46.8,39.5,36.0,33.8,32.0,80,62,45,30.43,30.32,5,0,6,0.00
2013-10-30,58.6,48.6,38.5,51.0,42.9,33.0,93,81,68,30.36,30.19,2,0,6,0.00
2013-10-31,63.6,56.7,45.6,61.0,54.3,44.0,96,92,81,30.23,29.81,2,0,4,0.05
2013-11-1,68.8,62.8,52.9,64.0,58.3,52.0,97,86,62,29.80,29.55,7,1,18,0.20
2013-11-2,65.9,56.2,48.9,55.0,47.5,40.0,98,75,50,29.80,29.63,2,0,6,0.00
2013-11-3,49.6,44.5,34.2,43.0,33.2,21.0,82,65,45,30.47,29.79,5,1,8,0.00
2013-11-4,44.4,36.5,30.3,26.0,20.6,17.0,73,54,35,30.67,30.47,6,0,9,0.00
2013-11-5,53.4,44.4,32.6,42.0,36.2,25.0,89,74,63,30.67,30.50,2,0,5,0.00
2013-11-6,61.6,50.8,39.6,49.0,45.1,38.0,97,82,60,30.51,30.08,2,0,5,0.00
2013-11-7,61.6,51.9,35.6,57.0,48.1,33.0,96,87,66,30.08,29.76,4,0,7,0.07
2013-11-8,47.4,41.9,35.1,35.0,28.8,23.0,92,62,43,30.24,29.95,6,1,11,0.07
2013-11-9,48.9,40.6,30.6,33.0,28.5,26.0,87,64,43,30.31,30.01,2,0,6,0.00
2013-11-10,58.2,46.3,34.4,40.0,33.4,27.0,91,63,40,30.06,29.83,10,2,17,0.00
2013-11-11,51.6,43.9,35.2,34.0,22.1,-99.9,74,50,45,30.22,29.97,6,-61,12,0.00
2013-11-12,49.3,24.9,28.8,35.0,-14.2,-99.9,75,41,49,30.31,29.94,11,-293,13,0.01
2013-11-13,38.0,24.1,27.4,20.0,-12.3,-99.9,70,40,35,30.39,30.30,8,-244,10,0.00
2013-11-14,51.4,31.3,28.0,22.0,-8.4,-99.9,71,34,24,30.29,30.17,8,-228,13,0.00
2013-11-15,56.3,33.9,30.8,30.0,-1.6,-99.9,78,43,27,30.27,30.17,4,-229,6,0.00
2013-11-16,59.6,37.2,37.6,47.0,6.9,-99.9,96,59,56,30.34,30.24,2,-250,5,0.00
2013-11-17,59.6,31.0,45.0,58.0,-14.3,-99.9,97,52,87,30.27,29.80,3,-442,4,0.00
2013-11-18,64.1,38.5,49.7,49.0,-11.4,-99.9,82,28,32,29.79,29.60,8,-342,13,0.00
2013-11-19,49.0,32.9,34.2,31.0,-2.3,-99.9,62,40,44,30.35,29.80,8,-219,16,0.00
2013-11-20,44.0,27.9,29.4,21.0,-10.1,-99.9,68,36,23,30.62,30.35,5,-225,9,0.00
2013-11-21,49.6,33.7,27.1,42.0,3.0,-99.9,81,53,57,30.63,30.41,4,-234,8,0.00
2013-11-22,56.4,37.1,46.7,50.0,4.7,-99.9,94,60,77,30.40,29.91,6,-291,9,0.01
2013-11-23,53.2,30.8,28.5,48.0,-5.8,-99.9,87,40,37,30.05,29.92,10,-238,13,0.00
2013-11-24,28.3,19.4,21.4,11.0,-18.3,-99.9,51,33,32,30.40,30.04,10,-218,23,0.00
2013-11-25,34.5,22.9,19.8,15.0,-12.2,-99.9,60,39,44,30.50,30.35,4,-218,8,0.00
2013-11-26,44.0,26.8,30.9,43.0,-4.4,-99.9,97,56,50,30.35,29.79,3,-252,6,0.59
2013-11-27,49.8,16.9,36.2,49.0,-43.6,-99.9,98,36,84,29.76,29.35,9,-592,15,0.08
2013-11-28,33.9,20.1,26.6,17.0,-24.6,-99.9,67,34,38,30.49,29.79,8,-336,13,0.08
2013-11-29,37.6,24.6,26.2,21.0,-7.6,-99.9,72,47,51,30.75,30.48,4,-223,7,0.00
2013-11-30,36.0,24.4,23.4,29.0,-7.5,-99.9,75,50,52,30.77,30.39,3,-239,6,0.00
2013-12-1,49.3,32.4,30.2,33.0,2.4,-99.9,91,53,51,30.39,30.02,3,-218,6,0.00
2013-12-2,50.2,30.3,34.4,36.0,-6.6,-99.9,92,49,51,30.02,29.89,2,-287,2,0.00
2013-12-3,53.6,31.5,33.1,38.0,-1.5,-99.9,97,54,54,30.02,29.88,4,-270,5,0.00
2013-12-4,50.5,35.9,33.9,44.0,10.2,-99.9,94,63,67,30.14,30.02,2,-210,4,0.00
2013-12-5,55.2,22.8,47.1,54.0,-33.7,-99.9,97,41,80,30.13,29.94,1,-557,3,0.00
2013-12-6,48.3,14.5,41.1,46.0,-53.5,-99.9,93,30,88,30.17,29.87,2,-673,6,0.09
2013-12-7,39.4,23.3,29.5,31.0,-16.6,-99.9,89,45,57,30.53,30.10,7,-332,10,0.09
2013-12-8,31.9,22.4,27.0,28.0,-7.0,-99.9,94,56,59,30.61,30.38,5,-233,7,0.00
2013-12-9,35.9,22.7,28.8,35.0,-11.0,-99.9,96,64,94,30.38,29.98,5,-329,10,0.14
2013-12-10,32.9,20.0,24.2,32.0,-14.8,-99.9,100,61,79,30.15,29.89,2,-333,8,0.14
2013-12-11,32.1,21.7,21.2,20.0,-8.1,-99.9,85,52,54,30.34,30.15,7,-220,11,0.00
2013-12-12,26.9,18.2,19.0,17.0,-14.8,-99.9,71,43,45,30.38,30.18,7,-218,10,0.00
2013-12-13,34.3,20.8,16.9,21.0,-12.3,-99.9,78,47,50,30.34,30.15,6,-230,12,0.00
2013-12-14,28.9,16.8,18.7,26.0,-11.8,-99.9,95,65,71,30.51,29.80,7,-261,15,0.00
2013-12-15,37.4,24.9,28.8,33.0,-3.8,-99.9,96,62,69,29.86,29.55,13,-249,13,0.12
2013-12-16,30.7,18.3,18.6,23.0,-17.9,-99.9,76,44,46,30.25,29.85,7,-271,10,0.12
2013-12-17,28.6,13.5,19.1,27.0,-34.8,-99.9,92,46,70,30.24,29.95,3,-462,6,0.00
2013-12-18,36.8,19.4,20.4,24.0,-20.7,-99.9,91,47,56,30.19,29.94,6,-347,12,0.03
2013-12-19,43.1,26.7,21.3,30.0,-1.4,-99.9,90,58,54,30.20,30.04,3,-221,8,0.13
2013-12-20,49.1,32.2,30.4,35.0,3.6,-99.9,92,57,57,30.12,29.98,5,-220,7,0.04
2013-12-21,60.8,38.9,37.9,52.0,13.7,-99.9,97,67,72,30.01,29.91,4,-218,10,0.04
2013-12-22,68.4,46.5,50.3,64.0,16.8,-99.9,97,62,76,29.97,29.81,5,-259,11,0.01
2013-12-23,59.0,18.5,50.5,59.0,-48.5,-99.9,98,32,90,30.17,29.90,4,-666,7,0.16
2013-12-24,39.4,21.5,24.7,26.0,-22.4,-99.9,77,39,49,30.36,30.10,7,-356,19,0.16
2013-12-25,27.5,18.8,17.1,16.0,-16.6,-99.9,65,40,46,30.55,30.37,8,-239,12,0.00
2013-12-26,34.7,22.4,23.4,27.0,-10.1,-99.9,79,54,63,30.45,30.18,6,-270,9,0.00
2013-12-27,39.4,24.4,26.5,24.0,-7.8,-99.9,85,51,50,30.38,30.28,4,-244,8,0.00
2013-12-28,54.3,31.8,24.3,30.0,-2.1,-99.9,90,46,38,30.30,30.09,10,-230,15,0.00
2013-12-29,42.8,17.1,35.3,39.0,-41.6,-99.9,96,36,67,30.08,29.44,4,-568,9,0.92
2013-12-30,43.2,19.6,21.1,38.0,-25.3,-99.9,88,40,57,30.21,29.71,7,-381,12,0.92
2013-12-31,29.9,19.6,19.0,24.0,-12.4,-99.9,81,48,51,30.30,30.08,8,-233,9,0.00
2014-1-1,31.6,22.2,17.6,21.0,-8.6,-99.9,84,49,52,30.43,30.26,4,-220,6,0.00
2014-1-2,30.5,10.3,21.7,21.0,-51.5,-99.9,87,32,65,30.25,29.69,8,-594,15,0.00